Aviation Digital Data Service (ADDS)

Output produced by METARs form (2053 UTC 29 May 2017)
found at http://www.aviationweather.gov/adds/metars/
 
GFLL 291900Z 28005KT 9999 BKN013 FEW028CB 29/24 Q1012 RMK CB-NE
TAF GFLL 291600Z 2918/3000 24008KT 8000 TSRA BKN011 FEW027CB 
     TEMPO 3000/3006 09005KT 6000 BKN010 
     TEMPO VRB04 9999 SCT014 SCT140 FEW028CB